Pulaski, Pennsylvania
Current Conditions -  °F | °C
As of 4:51 PM on Monday 20 Oct 2014 (Local Time) from KYNG Reporting Station
Light Rain Light Rain  
Wind Chill: 55°   Ceiling: 6500
Heat Index: 55°   Visibility: 10mi
Dew Point: 43°   Wind: 9mph
Humidity: 64%   Direction: 170°S
Pressure: 29.84"   Gusts: NA
Location:  41.11°N, 80.43°W
Report Text: KYNG 202051Z 17008KT 10SM -RA BKN065 OVC090 13/06 A2984 RMK AO2 RAE1954B16 SLP108 P0000 60000 T01280061 56012
Loading
Personal Weather Stations






























Interactive Weather Map
Tropical Storm Tracking
New forecast layout! Learn more

10-Day Weather Forecast

Advertisements
Track Severe Weather on mobile